createdAt,value
2023-04-18T00:00:00.945Z,102399.22
2023-04-18T00:02:29.532Z,102391.66
2023-04-18T00:04:56.472Z,102398.41
2023-04-18T00:07:23.184Z,102397.44
2023-04-18T00:09:50.015Z,102387.50
2023-04-18T00:12:17.629Z,102387.03
2023-04-18T00:14:44.213Z,102387.72
2023-04-18T00:17:11.009Z,102397.59
2023-04-18T00:19:38.551Z,102383.63
2023-04-18T00:22:07.122Z,102390.84
2023-04-18T00:24:33.797Z,102378.13
2023-04-18T00:27:01.717Z,102383.75
2023-04-18T00:29:31.691Z,102384.50
2023-04-18T00:31:58.273Z,102384.66
2023-04-18T00:34:24.915Z,102383.09
2023-04-18T00:36:53.583Z,102380.22
2023-04-18T00:39:21.605Z,102381.81
2023-04-18T00:41:48.130Z,102386.34
2023-04-18T00:44:14.932Z,102382.56
2023-04-18T00:46:41.685Z,102367.59
2023-04-18T00:49:08.653Z,102379.16
2023-04-18T00:51:35.963Z,102373.72
2023-04-18T00:54:07.579Z,102363.66
2023-04-18T00:56:36.109Z,102377.50
2023-04-18T00:59:03.842Z,102373.63
2023-04-18T01:01:30.917Z,102365.88
2023-04-18T01:03:57.595Z,102368.81
2023-04-18T01:06:24.523Z,102372.56
2023-04-18T01:08:51.598Z,102372.44
2023-04-18T01:11:18.200Z,102374.97
2023-04-18T01:14:07.680Z,102371.88
2023-04-18T01:16:37.041Z,102364.91
2023-04-18T01:19:04.675Z,102364.16
2023-04-18T01:21:37.463Z,102365.56
2023-04-18T01:24:08.667Z,102366.94
2023-04-18T01:26:35.813Z,102366.66
2023-04-18T01:29:05.510Z,102364.34
2023-04-18T01:31:36.578Z,102360.50
2023-04-18T01:34:06.224Z,102362.50
2023-04-18T01:36:33.300Z,102357.72
2023-04-18T01:39:00.460Z,102357.50
2023-04-18T01:41:33.751Z,102353.00
2023-04-18T01:44:01.235Z,102349.19
2023-04-18T01:46:28.890Z,102356.88
2023-04-18T01:48:56.768Z,102352.09
2023-04-18T01:51:23.457Z,102353.44
2023-04-18T01:53:50.514Z,102349.38
2023-04-18T01:56:17.414Z,102355.06
2023-04-18T01:58:44.238Z,102353.38
2023-04-18T02:01:12.431Z,102349.88
2023-04-18T02:03:40.034Z,102343.94
2023-04-18T02:06:07.339Z,102353.31
2023-04-18T02:08:35.789Z,102343.47
2023-04-18T02:11:05.251Z,102343.59
2023-04-18T02:13:34.526Z,102349.22
2023-04-18T02:16:11.403Z,102346.06
2023-04-18T02:18:40.127Z,102348.06
2023-04-18T02:21:07.208Z,102345.44
2023-04-18T02:23:33.860Z,102350.16
2023-04-18T02:26:00.442Z,102347.69
2023-04-18T02:28:27.058Z,102344.56
2023-04-18T02:30:54.423Z,102343.31
2023-04-18T02:33:21.023Z,102343.19
2023-04-18T02:35:47.520Z,102336.56
2023-04-18T02:38:16.001Z,102345.38
2023-04-18T02:40:42.488Z,102341.28
2023-04-18T02:43:09.181Z,102342.28
2023-04-18T02:45:35.955Z,102345.41
2023-04-18T02:48:02.985Z,102349.47
2023-04-18T02:50:31.041Z,102347.34
2023-04-18T02:52:58.364Z,102338.78
2023-04-18T02:55:33.142Z,102339.94
2023-04-18T02:58:01.932Z,102336.31
2023-04-18T03:01:04.912Z,102327.81
2023-04-18T03:03:48.153Z,102340.53
2023-04-18T03:06:27.952Z,102337.91
2023-04-18T03:08:55.816Z,102328.53
2023-04-18T03:11:23.759Z,102333.47
2023-04-18T03:13:50.665Z,102334.97
2023-04-18T03:16:19.921Z,102330.75
2023-04-18T03:18:48.233Z,102338.72
2023-04-18T03:21:15.919Z,102336.09
2023-04-18T03:23:42.563Z,102337.00
2023-04-18T03:26:09.758Z,102344.56
2023-04-18T03:28:40.182Z,102341.72
2023-04-18T03:31:07.807Z,102333.56
2023-04-18T03:33:39.150Z,102345.78
2023-04-18T03:36:11.235Z,102343.41
2023-04-18T03:38:40.456Z,102342.72
2023-04-18T03:41:07.568Z,102343.22
2023-04-18T03:43:36.564Z,102341.34
2023-04-18T03:46:07.401Z,102341.03
2023-04-18T03:48:37.379Z,102347.84
2023-04-18T03:51:08.309Z,102340.41
2023-04-18T03:53:36.311Z,102340.13
2023-04-18T03:56:03.510Z,102338.84
2023-04-18T03:58:45.942Z,102337.22
2023-04-18T04:01:12.823Z,102345.09
2023-04-18T04:03:39.575Z,102348.97
2023-04-18T04:06:06.809Z,102349.00
2023-04-18T04:08:34.276Z,102348.16
2023-04-18T04:11:01.873Z,102352.13
2023-04-18T04:13:29.238Z,102347.91
2023-04-18T04:15:56.890Z,102350.84
2023-04-18T04:18:29.809Z,102342.13
2023-04-18T04:20:59.323Z,102350.75
2023-04-18T04:23:38.842Z,102347.16
2023-04-18T04:26:05.752Z,102330.84
2023-04-18T04:28:51.626Z,102340.03
2023-04-18T04:31:22.952Z,102347.44
2023-04-18T04:33:50.428Z,102356.41
2023-04-18T04:36:20.391Z,102344.22
2023-04-18T04:38:49.129Z,102347.06
2023-04-18T04:41:17.284Z,102356.66
2023-04-18T04:43:44.072Z,102360.31
2023-04-18T04:46:13.798Z,102347.91
2023-04-18T04:48:42.708Z,102360.47
2023-04-18T04:51:09.290Z,102358.38
2023-04-18T04:53:36.317Z,102361.50
2023-04-18T04:56:04.797Z,102358.97
2023-04-18T04:58:33.787Z,102365.03
2023-04-18T05:01:10.723Z,102371.31
2023-04-18T05:03:38.139Z,102373.94
2023-04-18T05:06:05.589Z,102375.22
2023-04-18T05:08:32.428Z,102375.22
2023-04-18T05:10:58.948Z,102368.75
2023-04-18T05:13:25.902Z,102367.22
2023-04-18T05:15:52.640Z,102374.16
2023-04-18T05:18:19.319Z,102377.00
2023-04-18T05:20:46.036Z,102372.34
2023-04-18T05:23:12.761Z,102385.19
2023-04-18T05:25:39.397Z,102377.97
2023-04-18T05:28:08.305Z,102377.97
2023-04-18T05:30:35.507Z,102381.63
2023-04-18T05:33:02.271Z,102375.50
2023-04-18T05:35:28.909Z,102384.34
2023-04-18T05:37:55.610Z,102385.59
2023-04-18T05:40:22.210Z,102387.59
2023-04-18T05:42:48.938Z,102382.75
2023-04-18T05:45:15.822Z,102390.31
2023-04-18T05:47:42.476Z,102394.38
2023-04-18T05:50:09.344Z,102393.56
2023-04-18T05:52:38.388Z,102387.31
2023-04-18T05:55:06.529Z,102407.19
2023-04-18T05:57:33.245Z,102401.63
2023-04-18T05:59:59.813Z,102403.00
2023-04-18T06:02:26.587Z,102394.72
2023-04-18T06:04:53.317Z,102400.13
2023-04-18T06:07:21.397Z,102400.56
2023-04-18T06:09:49.699Z,102406.16
2023-04-18T06:12:16.469Z,102399.78
2023-04-18T06:14:43.049Z,102398.38
2023-04-18T06:17:12.456Z,102407.19
2023-04-18T06:19:39.560Z,102405.69
2023-04-18T06:22:06.408Z,102392.78
2023-04-18T06:24:33.004Z,102399.78
2023-04-18T06:27:00.089Z,102402.56
2023-04-18T06:29:30.333Z,102409.88
2023-04-18T06:31:57.883Z,102420.69
2023-04-18T06:34:24.622Z,102409.50
2023-04-18T06:36:52.282Z,102411.31
2023-04-18T06:39:19.047Z,102404.56
2023-04-18T06:41:45.787Z,102406.69
2023-04-18T06:44:19.599Z,102406.69
2023-04-18T06:46:46.416Z,102405.53
2023-04-18T06:49:13.203Z,102410.31
2023-04-18T06:51:39.971Z,102409.34
2023-04-18T06:54:06.964Z,102410.00
2023-04-18T06:56:35.878Z,102409.66
2023-04-18T06:59:03.137Z,102410.66
2023-04-18T07:01:33.412Z,102424.41
2023-04-18T07:04:00.746Z,102421.97
2023-04-18T07:06:27.825Z,102419.41
2023-04-18T07:09:00.225Z,102419.69
2023-04-18T07:11:28.045Z,102423.34
2023-04-18T07:13:55.133Z,102422.47
2023-04-18T07:16:21.814Z,102414.16
2023-04-18T07:18:48.790Z,102418.50
2023-04-18T07:21:15.687Z,102418.00
2023-04-18T07:23:42.496Z,102425.59
2023-04-18T07:26:11.299Z,102427.00
2023-04-18T07:28:37.962Z,102422.63
2023-04-18T07:31:05.002Z,102428.16
2023-04-18T07:33:33.722Z,102430.44
2023-04-18T07:36:01.615Z,102424.38
2023-04-18T07:38:28.574Z,102431.09
2023-04-18T07:40:59.467Z,102438.72
2023-04-18T07:43:26.906Z,102431.38
2023-04-18T07:45:54.326Z,102433.50
2023-04-18T07:48:22.512Z,102428.28
2023-04-18T07:50:49.429Z,102432.81
2023-04-18T07:53:16.454Z,102430.00
2023-04-18T07:55:46.681Z,102431.81
2023-04-18T07:58:13.854Z,102435.56
2023-04-18T08:00:42.604Z,102436.94
2023-04-18T08:03:10.971Z,102438.44
2023-04-18T08:05:41.893Z,102430.69
2023-04-18T08:08:10.752Z,102436.97
2023-04-18T08:10:37.981Z,102440.81
2023-04-18T08:13:05.211Z,102431.91
2023-04-18T08:15:33.063Z,102430.28
2023-04-18T08:18:00.969Z,102438.56
2023-04-18T08:20:28.000Z,102434.84
2023-04-18T08:25:24.441Z,102442.00
2023-04-18T08:27:51.180Z,102439.31
2023-04-18T08:30:17.998Z,102451.47
2023-04-18T08:32:45.021Z,102445.66
2023-04-18T08:35:36.321Z,102453.09
2023-04-18T08:38:32.999Z,102445.38
2023-04-18T08:42:04.427Z,102457.50
2023-04-18T08:45:01.470Z,102451.19
2023-04-18T08:47:31.164Z,102457.41
2023-04-18T08:50:04.077Z,102440.81
2023-04-18T08:53:06.634Z,102443.88
2023-04-18T08:56:10.521Z,102440.84
2023-04-18T09:00:01.991Z,102460.03
2023-04-18T09:06:33.518Z,102432.06
2023-04-18T09:09:01.665Z,102441.84
2023-04-18T09:11:30.255Z,102448.13
2023-04-18T09:13:58.896Z,102446.34
2023-04-18T09:16:27.664Z,102442.50
2023-04-18T09:19:12.926Z,102442.47
2023-04-18T09:21:44.629Z,102439.69
2023-04-18T09:24:24.779Z,102438.16
2023-04-18T09:26:53.744Z,102432.81
2023-04-18T09:29:23.702Z,102414.78
2023-04-18T09:32:03.907Z,102434.47
2023-04-18T09:34:33.994Z,102429.75
2023-04-18T09:37:07.406Z,102439.13
2023-04-18T09:39:35.644Z,102428.78
2023-04-18T09:45:46.972Z,102408.59
2023-04-18T09:48:33.096Z,102409.84
2023-04-18T09:57:29.250Z,102407.13
2023-04-18T09:59:58.968Z,102410.81
2023-04-18T10:02:37.136Z,102406.63
2023-04-18T10:05:14.301Z,102407.63
2023-04-18T10:07:59.120Z,102401.38
2023-04-18T10:10:29.992Z,102394.06
2023-04-18T10:13:05.110Z,102407.69
2023-04-18T10:15:38.285Z,102387.47
2023-04-18T10:18:23.225Z,102414.88
2023-04-18T10:21:31.411Z,102400.38
2023-04-18T10:24:05.121Z,102408.78
2023-04-18T10:26:52.853Z,102409.25
2023-04-18T10:29:46.291Z,102416.41
2023-04-18T10:32:24.135Z,102419.41
2023-04-18T10:34:56.620Z,102400.13
2023-04-18T10:37:26.279Z,102410.25
2023-04-18T10:39:56.050Z,102410.63
2023-04-18T10:42:41.894Z,102406.00
2023-04-18T10:45:22.610Z,102416.41
2023-04-18T10:47:50.154Z,102405.72
2023-04-18T10:50:17.712Z,102403.78
2023-04-18T10:52:44.969Z,102409.03
2023-04-18T10:55:24.406Z,102408.13
2023-04-18T10:57:51.719Z,102401.59
2023-04-18T11:00:21.425Z,102406.16
2023-04-18T11:02:50.634Z,102415.56
2023-04-18T11:05:26.918Z,102401.13
2023-04-18T11:07:53.885Z,102417.00
2023-04-18T11:10:26.631Z,102404.97
2023-04-18T11:12:55.172Z,102410.28
2023-04-18T11:15:23.469Z,102405.31
2023-04-18T11:17:59.234Z,102409.34
2023-04-18T11:20:26.796Z,102407.03
2023-04-18T11:22:55.024Z,102411.28
2023-04-18T11:25:35.692Z,102407.03
2023-04-18T11:28:06.827Z,102405.84
2023-04-18T11:30:41.402Z,102392.34
2023-04-18T11:33:12.383Z,102402.34
2023-04-18T11:35:44.018Z,102391.31
2023-04-18T11:38:16.680Z,102410.69
2023-04-18T11:40:51.156Z,102400.94
2023-04-18T11:43:23.232Z,102392.75
2023-04-18T11:45:57.835Z,102413.13
2023-04-18T11:48:38.064Z,102411.16
2023-04-18T11:51:07.862Z,102402.75
2023-04-18T11:53:36.269Z,102404.47
2023-04-18T11:56:04.079Z,102412.75
2023-04-18T11:58:33.419Z,102409.94
2023-04-18T12:01:15.944Z,102401.00
2023-04-18T12:04:10.357Z,102401.03
2023-04-18T12:06:49.478Z,102401.31
2023-04-18T12:09:17.767Z,102400.81
2023-04-18T12:11:56.134Z,102394.28
2023-04-18T12:14:23.155Z,102416.78
2023-04-18T12:16:50.726Z,102414.03
2023-04-18T12:19:17.805Z,102413.44
2023-04-18T12:22:01.404Z,102413.72
2023-04-18T12:24:36.120Z,102415.97
2023-04-18T12:27:06.275Z,102403.50
2023-04-18T12:29:32.804Z,102404.81
2023-04-18T12:31:59.598Z,102403.09
2023-04-18T12:34:26.361Z,102406.59
2023-04-18T12:36:53.773Z,102405.16
2023-04-18T12:39:20.613Z,102402.88
2023-04-18T12:41:53.358Z,102397.22
2023-04-18T12:44:24.992Z,102416.81
2023-04-18T12:46:51.816Z,102410.66
2023-04-18T12:49:18.545Z,102404.53
2023-04-18T12:51:45.659Z,102397.69
2023-04-18T12:54:14.219Z,102399.03
2023-04-18T12:59:50.294Z,102384.22
2023-04-18T13:02:29.870Z,102385.31
2023-04-18T13:05:09.812Z,102388.13
2023-04-18T13:08:16.321Z,102392.66
2023-04-18T13:10:45.647Z,102386.22
2023-04-18T13:13:13.336Z,102385.38
2023-04-18T13:15:44.191Z,102382.16
2023-04-18T13:18:16.758Z,102389.81
2023-04-18T13:20:46.358Z,102382.88
2023-04-18T13:23:33.539Z,102382.22
2023-04-18T13:26:00.591Z,102383.69
2023-04-18T13:28:27.128Z,102390.91
2023-04-18T13:30:53.808Z,102394.66
2023-04-18T13:33:20.603Z,102397.31
2023-04-18T13:35:47.365Z,102390.72
2023-04-18T13:38:14.298Z,102408.03
2023-04-18T13:40:42.811Z,102387.34
2023-04-18T13:43:12.468Z,102385.56
2023-04-18T13:45:39.083Z,102394.38
2023-04-18T13:48:47.035Z,102391.41
2023-04-18T13:51:22.778Z,102388.16
2023-04-18T13:53:49.938Z,102385.75
2023-04-18T13:56:16.732Z,102380.28
2023-04-18T13:58:45.725Z,102378.88
2023-04-18T14:01:14.113Z,102388.19
2023-04-18T14:03:43.566Z,102373.34
2023-04-18T14:06:11.321Z,102380.09
2023-04-18T14:08:38.048Z,102386.41
2023-04-18T14:11:08.145Z,102376.28
2023-04-18T14:13:35.203Z,102377.13
2023-04-18T14:16:06.361Z,102371.69
2023-04-18T14:18:33.429Z,102369.69
2023-04-18T14:21:06.943Z,102371.50
2023-04-18T14:23:43.821Z,102373.03
2023-04-18T14:26:11.856Z,102361.50
2023-04-18T14:28:38.715Z,102362.38
2023-04-18T14:31:49.992Z,102357.59
2023-04-18T14:34:21.517Z,102364.59
2023-04-18T14:36:48.499Z,102356.09
2023-04-18T14:39:15.371Z,102355.44
2023-04-18T14:41:55.816Z,102355.00
2023-04-18T14:44:32.332Z,102357.94
2023-04-18T14:47:03.917Z,102347.84
2023-04-18T14:49:57.944Z,102358.75
2023-04-18T14:53:03.291Z,102357.88
2023-04-18T14:56:04.196Z,102360.97
2023-04-18T14:58:58.839Z,102346.66
2023-04-18T15:01:29.019Z,102357.34
2023-04-18T15:05:16.938Z,102340.66
2023-04-18T15:10:16.090Z,102342.84
2023-04-18T15:12:42.982Z,102360.59
2023-04-18T15:15:10.140Z,102356.66
2023-04-18T15:17:36.795Z,102350.22
2023-04-18T15:20:07.050Z,102356.94
2023-04-18T15:22:37.249Z,102360.72
2023-04-18T15:25:05.552Z,102348.09
2023-04-18T15:27:32.250Z,102354.38
2023-04-18T15:29:58.994Z,102362.69
2023-04-18T15:32:26.008Z,102351.44
2023-04-18T15:34:52.876Z,102350.69
2023-04-18T15:37:20.137Z,102347.94
2023-04-18T15:39:49.819Z,102335.03
2023-04-18T15:42:16.667Z,102324.69
2023-04-18T15:44:43.295Z,102328.00
2023-04-18T15:47:09.956Z,102335.31
2023-04-18T15:49:36.763Z,102324.94
2023-04-18T15:52:06.903Z,102320.31
2023-04-18T15:54:33.813Z,102323.94
2023-04-18T15:57:03.172Z,102319.06
2023-04-18T15:59:33.062Z,102315.06
2023-04-18T16:01:59.763Z,102318.66
2023-04-18T16:04:26.917Z,102316.47
2023-04-18T16:06:53.998Z,102314.97
2023-04-18T16:09:20.718Z,102318.09
2023-04-18T16:11:48.237Z,102318.09
2023-04-18T16:14:15.338Z,102322.63
2023-04-18T16:16:42.033Z,102318.66
2023-04-18T16:19:08.945Z,102315.44
2023-04-18T16:21:38.438Z,102319.38
2023-04-18T16:24:10.022Z,102330.66
2023-04-18T16:26:37.140Z,102313.44
2023-04-18T16:29:04.113Z,102311.78
2023-04-18T16:31:31.457Z,102316.19
2023-04-18T16:33:58.123Z,102307.00
2023-04-18T16:36:25.994Z,102295.41
2023-04-18T16:38:52.973Z,102322.69
2023-04-18T16:41:19.771Z,102330.22
2023-04-18T16:43:46.475Z,102310.31
2023-04-18T16:46:13.978Z,102314.75
2023-04-18T16:48:43.751Z,102326.53
2023-04-18T16:51:10.753Z,102324.16
2023-04-18T16:53:37.356Z,102319.44
2023-04-18T16:56:04.305Z,102316.50
2023-04-18T16:58:33.594Z,102321.28
2023-04-18T17:01:03.133Z,102322.00
2023-04-18T17:03:29.881Z,102310.88
2023-04-18T17:05:56.531Z,102316.25
2023-04-18T17:08:25.301Z,102313.22
2023-04-18T17:10:52.915Z,102312.94
2023-04-18T17:13:24.514Z,102316.19
2023-04-18T17:15:51.571Z,102327.72
2023-04-18T17:18:18.326Z,102324.44
2023-04-18T17:20:45.378Z,102318.59
2023-04-18T17:23:11.941Z,102315.22
2023-04-18T17:25:38.792Z,102313.81
2023-04-18T17:28:07.902Z,102311.19
2023-04-18T17:30:38.486Z,102315.13
2023-04-18T17:33:06.130Z,102319.50
2023-04-18T17:35:33.029Z,102317.19
2023-04-18T17:37:59.711Z,102318.66
2023-04-18T17:40:26.564Z,102317.38
2023-04-18T17:42:53.529Z,102310.53
2023-04-18T17:45:21.295Z,102321.66
2023-04-18T17:47:49.519Z,102321.13
2023-04-18T17:50:16.594Z,102313.16
2023-04-18T17:52:43.936Z,102327.44
2023-04-18T17:55:11.330Z,102316.03
2023-04-18T17:57:39.162Z,102326.91
2023-04-18T18:00:11.153Z,102320.56
2023-04-18T18:02:42.823Z,102329.38
2023-04-18T18:05:13.692Z,102320.09
2023-04-18T18:07:43.644Z,102323.78
2023-04-18T18:10:11.806Z,102327.22
2023-04-18T18:12:39.913Z,102330.72
2023-04-18T18:15:08.354Z,102329.66
2023-04-18T18:17:37.100Z,102325.97
2023-04-18T18:20:09.916Z,102334.56
2023-04-18T18:22:37.284Z,102334.41
2023-04-18T18:25:08.007Z,102340.88
2023-04-18T18:27:34.904Z,102340.69
2023-04-18T18:30:05.098Z,102337.97
2023-04-18T18:32:32.748Z,102342.50
2023-04-18T18:34:59.993Z,102339.63
2023-04-18T18:37:29.804Z,102340.41
2023-04-18T18:39:56.722Z,102336.22
2023-04-18T18:42:23.402Z,102346.97
2023-04-18T18:44:49.957Z,102337.44
2023-04-18T18:47:19.939Z,102339.25
2023-04-18T18:49:47.343Z,102348.69
2023-04-18T18:52:14.159Z,102351.28
2023-04-18T18:54:40.891Z,102353.28
2023-04-18T18:57:08.544Z,102354.84
2023-04-18T18:59:36.129Z,102354.72
2023-04-18T19:02:03.416Z,102361.72
2023-04-18T19:04:30.440Z,102362.16
2023-04-18T19:06:57.795Z,102358.66
2023-04-18T19:09:24.416Z,102365.63
2023-04-18T19:11:51.347Z,102367.91
2023-04-18T19:14:18.250Z,102374.66
2023-04-18T19:16:45.017Z,102373.59
2023-04-18T19:19:12.060Z,102371.81
2023-04-18T19:21:39.799Z,102374.44
2023-04-18T19:24:12.268Z,102376.53
2023-04-18T19:26:41.709Z,102376.38
2023-04-18T19:29:10.710Z,102375.72
2023-04-18T19:31:37.409Z,102375.66
2023-04-18T19:34:04.114Z,102382.25
2023-04-18T19:36:32.172Z,102378.69
2023-04-18T19:38:58.738Z,102380.78
2023-04-18T19:41:25.981Z,102377.97
2023-04-18T19:43:54.142Z,102390.50
2023-04-18T19:46:20.770Z,102384.56
2023-04-18T19:48:47.407Z,102394.16
2023-04-18T19:51:14.052Z,102393.06
2023-04-18T19:53:40.656Z,102385.84
2023-04-18T19:56:10.832Z,102388.56
2023-04-18T19:58:46.026Z,102388.72
2023-04-18T20:01:14.056Z,102390.94
2023-04-18T20:03:41.539Z,102391.47
2023-04-18T20:06:09.875Z,102392.63
2023-04-18T20:08:38.899Z,102398.88
2023-04-18T20:11:08.460Z,102394.03
2023-04-18T20:13:36.670Z,102397.28
2023-04-18T20:16:07.796Z,102400.91
2023-04-18T20:18:37.618Z,102396.88
2023-04-18T20:21:07.500Z,102398.84
2023-04-18T20:23:37.049Z,102398.41
2023-04-18T20:26:04.373Z,102394.09
2023-04-18T20:28:32.498Z,102386.56
2023-04-18T20:30:59.457Z,102400.53
2023-04-18T20:33:26.064Z,102401.47
2023-04-18T20:35:54.575Z,102397.28
2023-04-18T20:38:25.938Z,102402.53
2023-04-18T20:40:53.296Z,102397.84
2023-04-18T20:43:20.312Z,102397.94
2023-04-18T20:45:54.463Z,102406.97
2023-04-18T20:48:21.227Z,102405.25
2023-04-18T20:50:51.507Z,102396.88
2023-04-18T20:53:20.989Z,102409.41
2023-04-18T20:55:48.728Z,102403.09
2023-04-18T20:58:18.660Z,102407.41
2023-04-18T21:00:45.477Z,102406.50
2023-04-18T21:03:17.063Z,102405.75
2023-04-18T21:05:44.763Z,102411.69
2023-04-18T21:08:11.632Z,102410.41
2023-04-18T21:10:38.491Z,102418.72
2023-04-18T21:13:05.877Z,102415.22
2023-04-18T21:15:32.770Z,102410.44
2023-04-18T21:18:03.592Z,102419.44
2023-04-18T21:20:37.863Z,102404.97
2023-04-18T21:23:07.551Z,102421.81
2023-04-18T21:25:36.864Z,102418.28
2023-04-18T21:28:03.881Z,102416.78
2023-04-18T21:30:31.923Z,102411.78
2023-04-18T21:32:58.803Z,102414.00
2023-04-18T21:35:29.849Z,102421.63
2023-04-18T21:38:00.271Z,102428.00
2023-04-18T21:40:30.733Z,102430.09
2023-04-18T21:42:57.908Z,102419.91
2023-04-18T21:45:26.867Z,102415.81
2023-04-18T21:47:56.575Z,102421.16
2023-04-18T21:50:26.326Z,102415.44
2023-04-18T21:52:58.213Z,102420.91
2023-04-18T21:55:27.451Z,102425.16
2023-04-18T21:57:56.142Z,102423.91
2023-04-18T22:00:22.862Z,102414.63
2023-04-18T22:02:53.208Z,102407.97
2023-04-18T22:05:21.061Z,102424.28
2023-04-18T22:07:58.517Z,102416.44
2023-04-18T22:11:19.302Z,102419.81
2023-04-18T22:14:08.681Z,102404.97
2023-04-18T22:17:05.155Z,102410.63
2023-04-18T22:21:23.754Z,102399.06
2023-04-18T22:24:14.135Z,102402.47
2023-04-18T22:27:03.354Z,102415.72
2023-04-18T22:29:31.342Z,102414.31
2023-04-18T22:31:58.061Z,102407.75
2023-04-18T22:37:32.392Z,102405.47
2023-04-18T22:43:31.943Z,102403.69
2023-04-18T22:46:17.406Z,102406.41
2023-04-18T22:48:55.303Z,102428.22
2023-04-18T22:51:32.623Z,102419.22
2023-04-18T22:54:13.304Z,102425.47
2023-04-18T22:56:51.733Z,102424.41
2023-04-18T22:59:30.539Z,102417.13
2023-04-18T23:01:58.887Z,102429.50
2023-04-18T23:04:34.360Z,102431.63
2023-04-18T23:07:09.417Z,102431.44
2023-04-18T23:09:39.682Z,102421.16
2023-04-18T23:12:09.689Z,102433.78
2023-04-18T23:14:50.451Z,102420.09
2023-04-18T23:17:21.174Z,102432.72
2023-04-18T23:19:57.194Z,102416.31
2023-04-18T23:22:55.801Z,102432.28
2023-04-18T23:25:47.767Z,102430.56
2023-04-18T23:28:18.481Z,102429.38
2023-04-18T23:30:46.184Z,102435.44
2023-04-18T23:33:16.631Z,102436.69
2023-04-18T23:35:46.914Z,102434.66
2023-04-18T23:38:13.781Z,102437.00
2023-04-18T23:40:40.556Z,102433.19
2023-04-18T23:43:12.295Z,102428.88
2023-04-18T23:45:40.590Z,102431.78
2023-04-18T23:48:07.931Z,102421.69
2023-04-18T23:50:48.767Z,102420.34
2023-04-18T23:53:18.470Z,102432.41
2023-04-18T23:55:50.711Z,102421.41
2023-04-18T23:58:18.409Z,102420.94
